sensor_id;sensor_type;location;lat;lon;timestamp;P1;durP1;ratioP1;P2;durP2;ratioP2
12567;SDS011;6349;50.904;6.136;2023-07-08T00:01:54;5.18;;;4.68;;
12567;SDS011;6349;50.904;6.136;2023-07-08T00:03:56;5.68;;;5.10;;
12567;SDS011;6349;50.904;6.136;2023-07-08T00:05:57;5.70;;;5.10;;
12567;SDS011;6349;50.904;6.136;2023-07-08T00:07:59;6.65;;;5.20;;
12567;SDS011;6349;50.904;6.136;2023-07-08T00:10:01;5.43;;;4.80;;
12567;SDS011;6349;50.904;6.136;2023-07-08T00:12:04;5.47;;;4.97;;
12567;SDS011;6349;50.904;6.136;2023-07-08T00:14:11;5.97;;;5.03;;
12567;SDS011;6349;50.904;6.136;2023-07-08T00:16:14;6.30;;;5.15;;
12567;SDS011;6349;50.904;6.136;2023-07-08T00:18:19;5.80;;;5.20;;
12567;SDS011;6349;50.904;6.136;2023-07-08T00:20:39;5.93;;;5.32;;
12567;SDS011;6349;50.904;6.136;2023-07-08T00:22:51;8.38;;;5.20;;
12567;SDS011;6349;50.904;6.136;2023-07-08T00:24:53;8.27;;;5.05;;
12567;SDS011;6349;50.904;6.136;2023-07-08T00:26:55;6.63;;;5.38;;
12567;SDS011;6349;50.904;6.136;2023-07-08T00:28:55;9.18;;;5.30;;
12567;SDS011;6349;50.904;6.136;2023-07-08T00:30:58;8.98;;;5.20;;
12567;SDS011;6349;50.904;6.136;2023-07-08T00:32:59;4.97;;;4.47;;
12567;SDS011;6349;50.904;6.136;2023-07-08T00:35:01;5.72;;;4.97;;
12567;SDS011;6349;50.904;6.136;2023-07-08T00:37:03;8.73;;;5.72;;
12567;SDS011;6349;50.904;6.136;2023-07-08T00:39:12;8.00;;;5.07;;
12567;SDS011;6349;50.904;6.136;2023-07-08T00:41:25;6.47;;;5.80;;
12567;SDS011;6349;50.904;6.136;2023-07-08T00:43:46;7.70;;;5.22;;
12567;SDS011;6349;50.904;6.136;2023-07-08T00:45:55;6.57;;;5.18;;
12567;SDS011;6349;50.904;6.136;2023-07-08T00:50:35;6.65;;;5.20;;
12567;SDS011;6349;50.904;6.136;2023-07-08T00:52:37;6.90;;;4.97;;
12567;SDS011;6349;50.904;6.136;2023-07-08T00:54:39;8.35;;;4.90;;
12567;SDS011;6349;50.904;6.136;2023-07-08T00:56:54;6.60;;;4.93;;
12567;SDS011;6349;50.904;6.136;2023-07-08T00:59:01;6.57;;;5.25;;
12567;SDS011;6349;50.904;6.136;2023-07-08T01:01:31;9.93;;;4.90;;
12567;SDS011;6349;50.904;6.136;2023-07-08T01:03:36;10.30;;;5.63;;
12567;SDS011;6349;50.904;6.136;2023-07-08T01:05:46;7.35;;;4.82;;
12567;SDS011;6349;50.904;6.136;2023-07-08T01:07:50;11.82;;;5.40;;
12567;SDS011;6349;50.904;6.136;2023-07-08T01:10:01;7.03;;;4.78;;
12567;SDS011;6349;50.904;6.136;2023-07-08T01:12:10;6.03;;;4.38;;
12567;SDS011;6349;50.904;6.136;2023-07-08T01:14:16;7.18;;;4.88;;
12567;SDS011;6349;50.904;6.136;2023-07-08T01:16:21;7.47;;;4.47;;
12567;SDS011;6349;50.904;6.136;2023-07-08T01:18:24;4.97;;;4.45;;
12567;SDS011;6349;50.904;6.136;2023-07-08T01:20:26;7.57;;;4.60;;
12567;SDS011;6349;50.904;6.136;2023-07-08T01:22:28;6.88;;;5.30;;
12567;SDS011;6349;50.904;6.136;2023-07-08T01:24:35;9.23;;;5.00;;
12567;SDS011;6349;50.904;6.136;2023-07-08T01:26:41;7.35;;;5.20;;
12567;SDS011;6349;50.904;6.136;2023-07-08T01:28:45;8.70;;;5.15;;
12567;SDS011;6349;50.904;6.136;2023-07-08T01:30:47;11.70;;;5.45;;
12567;SDS011;6349;50.904;6.136;2023-07-08T01:32:52;7.10;;;4.82;;
12567;SDS011;6349;50.904;6.136;2023-07-08T01:34:59;7.65;;;5.05;;
12567;SDS011;6349;50.904;6.136;2023-07-08T01:37:04;7.35;;;4.43;;
12567;SDS011;6349;50.904;6.136;2023-07-08T01:39:17;5.72;;;4.88;;
12567;SDS011;6349;50.904;6.136;2023-07-08T01:41:21;6.80;;;5.03;;
12567;SDS011;6349;50.904;6.136;2023-07-08T01:43:23;6.18;;;4.70;;
12567;SDS011;6349;50.904;6.136;2023-07-08T01:45:26;5.40;;;4.50;;
12567;SDS011;6349;50.904;6.136;2023-07-08T01:47:31;10.88;;;4.85;;
12567;SDS011;6349;50.904;6.136;2023-07-08T01:49:33;6.85;;;5.47;;
12567;SDS011;6349;50.904;6.136;2023-07-08T01:51:37;8.88;;;5.00;;
12567;SDS011;6349;50.904;6.136;2023-07-08T01:53:41;7.22;;;5.07;;
12567;SDS011;6349;50.904;6.136;2023-07-08T01:55:44;5.95;;;4.30;;
12567;SDS011;6349;50.904;6.136;2023-07-08T01:57:46;7.78;;;5.53;;
12567;SDS011;6349;50.904;6.136;2023-07-08T01:59:47;6.10;;;4.85;;
12567;SDS011;6349;50.904;6.136;2023-07-08T02:01:49;8.18;;;5.00;;
12567;SDS011;6349;50.904;6.136;2023-07-08T02:03:54;6.60;;;4.95;;
12567;SDS011;6349;50.904;6.136;2023-07-08T02:05:56;5.60;;;5.10;;
12567;SDS011;6349;50.904;6.136;2023-07-08T02:07:58;5.68;;;5.18;;
12567;SDS011;6349;50.904;6.136;2023-07-08T02:10:00;5.72;;;5.13;;
12567;SDS011;6349;50.904;6.136;2023-07-08T02:12:03;7.72;;;4.90;;
12567;SDS011;6349;50.904;6.136;2023-07-08T02:14:05;6.70;;;4.90;;
12567;SDS011;6349;50.904;6.136;2023-07-08T02:16:07;7.03;;;5.00;;
12567;SDS011;6349;50.904;6.136;2023-07-08T02:18:09;8.77;;;5.05;;
12567;SDS011;6349;50.904;6.136;2023-07-08T02:20:11;5.05;;;4.63;;
12567;SDS011;6349;50.904;6.136;2023-07-08T02:22:12;5.55;;;4.93;;
12567;SDS011;6349;50.904;6.136;2023-07-08T02:24:14;8.35;;;5.25;;
12567;SDS011;6349;50.904;6.136;2023-07-08T02:26:18;6.35;;;4.75;;
12567;SDS011;6349;50.904;6.136;2023-07-08T02:28:20;6.70;;;5.20;;
12567;SDS011;6349;50.904;6.136;2023-07-08T02:30:22;7.30;;;5.20;;
12567;SDS011;6349;50.904;6.136;2023-07-08T02:32:25;7.32;;;5.63;;
12567;SDS011;6349;50.904;6.136;2023-07-08T02:34:27;5.32;;;4.82;;
12567;SDS011;6349;50.904;6.136;2023-07-08T02:36:30;6.72;;;5.22;;
12567;SDS011;6349;50.904;6.136;2023-07-08T02:38:32;8.13;;;5.60;;
12567;SDS011;6349;50.904;6.136;2023-07-08T02:40:35;7.18;;;5.30;;
12567;SDS011;6349;50.904;6.136;2023-07-08T02:42:37;6.40;;;5.38;;
12567;SDS011;6349;50.904;6.136;2023-07-08T02:44:39;7.72;;;5.45;;
12567;SDS011;6349;50.904;6.136;2023-07-08T02:46:41;7.15;;;5.55;;
12567;SDS011;6349;50.904;6.136;2023-07-08T02:48:42;6.57;;;5.55;;
12567;SDS011;6349;50.904;6.136;2023-07-08T02:50:44;8.60;;;5.75;;
12567;SDS011;6349;50.904;6.136;2023-07-08T02:52:47;8.93;;;5.05;;
12567;SDS011;6349;50.904;6.136;2023-07-08T02:54:48;6.85;;;5.45;;
12567;SDS011;6349;50.904;6.136;2023-07-08T02:56:50;8.77;;;5.50;;
12567;SDS011;6349;50.904;6.136;2023-07-08T02:58:53;8.90;;;5.50;;
12567;SDS011;6349;50.904;6.136;2023-07-08T03:00:55;10.10;;;5.75;;
12567;SDS011;6349;50.904;6.136;2023-07-08T03:03:00;6.55;;;5.50;;
12567;SDS011;6349;50.904;6.136;2023-07-08T03:05:02;8.55;;;5.60;;
12567;SDS011;6349;50.904;6.136;2023-07-08T03:07:07;7.25;;;5.22;;
12567;SDS011;6349;50.904;6.136;2023-07-08T03:09:12;7.78;;;5.30;;
12567;SDS011;6349;50.904;6.136;2023-07-08T03:11:15;7.78;;;5.82;;
12567;SDS011;6349;50.904;6.136;2023-07-08T03:13:17;9.07;;;5.88;;
12567;SDS011;6349;50.904;6.136;2023-07-08T03:15:19;7.90;;;5.53;;
12567;SDS011;6349;50.904;6.136;2023-07-08T03:17:21;7.65;;;5.78;;
12567;SDS011;6349;50.904;6.136;2023-07-08T03:19:23;8.52;;;5.57;;
12567;SDS011;6349;50.904;6.136;2023-07-08T03:21:25;8.48;;;5.70;;
12567;SDS011;6349;50.904;6.136;2023-07-08T03:23:27;10.60;;;5.78;;
12567;SDS011;6349;50.904;6.136;2023-07-08T03:25:29;8.65;;;6.13;;
12567;SDS011;6349;50.904;6.136;2023-07-08T03:27:31;9.13;;;5.50;;
12567;SDS011;6349;50.904;6.136;2023-07-08T03:29:33;10.73;;;6.07;;
12567;SDS011;6349;50.904;6.136;2023-07-08T03:31:34;8.80;;;5.47;;
12567;SDS011;6349;50.904;6.136;2023-07-08T03:33:36;8.75;;;5.68;;
12567;SDS011;6349;50.904;6.136;2023-07-08T03:35:38;8.48;;;5.90;;
12567;SDS011;6349;50.904;6.136;2023-07-08T03:37:41;7.45;;;6.20;;
12567;SDS011;6349;50.904;6.136;2023-07-08T03:39:43;8.18;;;6.18;;
12567;SDS011;6349;50.904;6.136;2023-07-08T03:41:44;6.40;;;5.45;;
12567;SDS011;6349;50.904;6.136;2023-07-08T03:43:47;9.05;;;5.60;;
12567;SDS011;6349;50.904;6.136;2023-07-08T03:45:49;7.28;;;5.72;;
12567;SDS011;6349;50.904;6.136;2023-07-08T03:47:50;7.28;;;5.65;;
12567;SDS011;6349;50.904;6.136;2023-07-08T03:49:52;10.68;;;6.40;;
12567;SDS011;6349;50.904;6.136;2023-07-08T03:51:54;7.07;;;5.20;;
12567;SDS011;6349;50.904;6.136;2023-07-08T03:53:56;7.32;;;6.18;;
12567;SDS011;6349;50.904;6.136;2023-07-08T03:55:58;9.52;;;5.78;;
12567;SDS011;6349;50.904;6.136;2023-07-08T03:58:00;10.07;;;5.72;;
12567;SDS011;6349;50.904;6.136;2023-07-08T04:00:02;7.68;;;5.35;;
12567;SDS011;6349;50.904;6.136;2023-07-08T04:02:05;7.88;;;5.90;;
12567;SDS011;6349;50.904;6.136;2023-07-08T04:04:11;8.18;;;5.93;;
12567;SDS011;6349;50.904;6.136;2023-07-08T04:06:14;15.10;;;6.45;;
12567;SDS011;6349;50.904;6.136;2023-07-08T04:08:16;8.88;;;6.25;;
12567;SDS011;6349;50.904;6.136;2023-07-08T04:10:18;9.05;;;6.20;;
12567;SDS011;6349;50.904;6.136;2023-07-08T04:12:20;10.68;;;6.00;;
12567;SDS011;6349;50.904;6.136;2023-07-08T04:14:22;7.60;;;5.97;;
12567;SDS011;6349;50.904;6.136;2023-07-08T04:16:25;10.02;;;6.30;;
12567;SDS011;6349;50.904;6.136;2023-07-08T04:18:30;7.03;;;5.65;;
12567;SDS011;6349;50.904;6.136;2023-07-08T04:20:32;11.93;;;6.10;;
12567;SDS011;6349;50.904;6.136;2023-07-08T04:22:34;9.93;;;6.10;;
12567;SDS011;6349;50.904;6.136;2023-07-08T04:24:36;7.05;;;5.43;;
12567;SDS011;6349;50.904;6.136;2023-07-08T04:26:38;8.63;;;5.75;;
12567;SDS011;6349;50.904;6.136;2023-07-08T04:28:42;7.88;;;6.15;;
12567;SDS011;6349;50.904;6.136;2023-07-08T04:30:44;12.70;;;6.10;;
12567;SDS011;6349;50.904;6.136;2023-07-08T04:32:45;9.40;;;6.25;;
12567;SDS011;6349;50.904;6.136;2023-07-08T04:34:47;6.88;;;5.50;;
12567;SDS011;6349;50.904;6.136;2023-07-08T04:36:49;7.38;;;5.85;;
12567;SDS011;6349;50.904;6.136;2023-07-08T04:38:51;8.80;;;6.13;;
12567;SDS011;6349;50.904;6.136;2023-07-08T04:40:53;8.48;;;6.15;;
12567;SDS011;6349;50.904;6.136;2023-07-08T04:42:55;7.15;;;5.68;;
12567;SDS011;6349;50.904;6.136;2023-07-08T04:44:57;7.57;;;5.63;;
12567;SDS011;6349;50.904;6.136;2023-07-08T04:46:58;6.72;;;6.03;;
12567;SDS011;6349;50.904;6.136;2023-07-08T04:49:01;7.97;;;6.15;;
12567;SDS011;6349;50.904;6.136;2023-07-08T04:51:04;7.72;;;6.20;;
12567;SDS011;6349;50.904;6.136;2023-07-08T04:53:05;6.43;;;5.82;;
12567;SDS011;6349;50.904;6.136;2023-07-08T04:55:08;8.30;;;5.80;;
12567;SDS011;6349;50.904;6.136;2023-07-08T04:57:11;8.20;;;5.75;;
12567;SDS011;6349;50.904;6.136;2023-07-08T04:59:14;7.47;;;5.97;;
12567;SDS011;6349;50.904;6.136;2023-07-08T05:01:18;7.50;;;6.70;;
12567;SDS011;6349;50.904;6.136;2023-07-08T05:03:20;7.30;;;6.10;;
12567;SDS011;6349;50.904;6.136;2023-07-08T05:05:22;10.50;;;6.60;;
12567;SDS011;6349;50.904;6.136;2023-07-08T05:07:24;8.23;;;6.13;;
12567;SDS011;6349;50.904;6.136;2023-07-08T05:09:26;9.30;;;6.07;;
12567;SDS011;6349;50.904;6.136;2023-07-08T05:11:28;7.00;;;6.28;;
12567;SDS011;6349;50.904;6.136;2023-07-08T05:13:29;6.82;;;6.13;;
12567;SDS011;6349;50.904;6.136;2023-07-08T05:15:31;6.95;;;6.25;;
12567;SDS011;6349;50.904;6.136;2023-07-08T05:17:33;7.28;;;5.93;;
12567;SDS011;6349;50.904;6.136;2023-07-08T05:19:35;9.40;;;6.28;;
12567;SDS011;6349;50.904;6.136;2023-07-08T05:21:37;7.50;;;5.85;;
12567;SDS011;6349;50.904;6.136;2023-07-08T05:23:39;9.38;;;7.07;;
12567;SDS011;6349;50.904;6.136;2023-07-08T05:25:41;8.13;;;6.30;;
12567;SDS011;6349;50.904;6.136;2023-07-08T05:27:43;8.07;;;6.20;;
12567;SDS011;6349;50.904;6.136;2023-07-08T05:29:48;9.65;;;6.80;;
12567;SDS011;6349;50.904;6.136;2023-07-08T05:31:50;7.22;;;6.45;;
12567;SDS011;6349;50.904;6.136;2023-07-08T05:33:51;7.00;;;6.30;;
12567;SDS011;6349;50.904;6.136;2023-07-08T05:35:53;6.68;;;6.00;;
12567;SDS011;6349;50.904;6.136;2023-07-08T05:37:55;9.38;;;6.53;;
12567;SDS011;6349;50.904;6.136;2023-07-08T05:39:57;7.95;;;6.25;;
12567;SDS011;6349;50.904;6.136;2023-07-08T05:42:06;7.25;;;6.50;;
12567;SDS011;6349;50.904;6.136;2023-07-08T05:44:08;9.20;;;6.43;;
12567;SDS011;6349;50.904;6.136;2023-07-08T05:46:09;6.75;;;6.00;;
12567;SDS011;6349;50.904;6.136;2023-07-08T05:48:13;9.15;;;6.75;;
12567;SDS011;6349;50.904;6.136;2023-07-08T05:50:15;7.85;;;6.85;;
12567;SDS011;6349;50.904;6.136;2023-07-08T05:52:17;7.40;;;6.60;;
12567;SDS011;6349;50.904;6.136;2023-07-08T05:54:19;8.75;;;6.85;;
12567;SDS011;6349;50.904;6.136;2023-07-08T05:56:20;7.90;;;7.00;;
12567;SDS011;6349;50.904;6.136;2023-07-08T05:58:22;8.48;;;7.00;;
12567;SDS011;6349;50.904;6.136;2023-07-08T06:00:24;9.35;;;6.72;;
12567;SDS011;6349;50.904;6.136;2023-07-08T06:02:26;7.47;;;6.40;;
12567;SDS011;6349;50.904;6.136;2023-07-08T06:04:28;7.35;;;6.60;;
12567;SDS011;6349;50.904;6.136;2023-07-08T06:06:33;9.40;;;7.03;;
12567;SDS011;6349;50.904;6.136;2023-07-08T06:08:34;10.63;;;7.20;;
12567;SDS011;6349;50.904;6.136;2023-07-08T06:10:41;7.97;;;6.78;;
12567;SDS011;6349;50.904;6.136;2023-07-08T06:12:44;10.02;;;6.65;;
12567;SDS011;6349;50.904;6.136;2023-07-08T06:14:46;7.72;;;6.30;;
12567;SDS011;6349;50.904;6.136;2023-07-08T06:16:48;9.43;;;6.47;;
12567;SDS011;6349;50.904;6.136;2023-07-08T06:18:48;8.18;;;6.70;;
12567;SDS011;6349;50.904;6.136;2023-07-08T06:20:52;9.05;;;6.97;;
12567;SDS011;6349;50.904;6.136;2023-07-08T06:22:54;8.68;;;6.45;;
12567;SDS011;6349;50.904;6.136;2023-07-08T06:24:57;8.70;;;6.88;;
12567;SDS011;6349;50.904;6.136;2023-07-08T06:27:00;8.15;;;6.47;;
12567;SDS011;6349;50.904;6.136;2023-07-08T06:29:02;9.30;;;6.95;;
12567;SDS011;6349;50.904;6.136;2023-07-08T06:31:05;8.35;;;7.47;;
12567;SDS011;6349;50.904;6.136;2023-07-08T06:33:07;8.77;;;7.15;;
12567;SDS011;6349;50.904;6.136;2023-07-08T06:35:09;8.25;;;6.88;;
12567;SDS011;6349;50.904;6.136;2023-07-08T06:37:10;9.68;;;7.22;;
12567;SDS011;6349;50.904;6.136;2023-07-08T06:39:12;11.95;;;6.82;;
12567;SDS011;6349;50.904;6.136;2023-07-08T06:41:14;8.45;;;6.75;;
12567;SDS011;6349;50.904;6.136;2023-07-08T06:43:15;8.98;;;6.90;;
12567;SDS011;6349;50.904;6.136;2023-07-08T06:45:17;9.25;;;7.28;;
12567;SDS011;6349;50.904;6.136;2023-07-08T06:47:20;11.25;;;7.18;;
12567;SDS011;6349;50.904;6.136;2023-07-08T06:49:22;9.73;;;7.18;;
12567;SDS011;6349;50.904;6.136;2023-07-08T06:51:24;9.05;;;7.03;;
12567;SDS011;6349;50.904;6.136;2023-07-08T06:53:26;8.70;;;6.68;;
12567;SDS011;6349;50.904;6.136;2023-07-08T06:55:29;8.13;;;6.75;;
12567;SDS011;6349;50.904;6.136;2023-07-08T06:57:31;8.98;;;7.07;;
12567;SDS011;6349;50.904;6.136;2023-07-08T06:59:34;10.05;;;6.57;;
12567;SDS011;6349;50.904;6.136;2023-07-08T07:01:36;8.60;;;6.78;;
12567;SDS011;6349;50.904;6.136;2023-07-08T07:03:39;7.85;;;6.47;;
12567;SDS011;6349;50.904;6.136;2023-07-08T07:05:42;8.07;;;6.72;;
12567;SDS011;6349;50.904;6.136;2023-07-08T07:07:44;11.05;;;6.78;;
12567;SDS011;6349;50.904;6.136;2023-07-08T07:09:46;10.73;;;6.88;;
12567;SDS011;6349;50.904;6.136;2023-07-08T07:11:48;9.98;;;6.78;;
12567;SDS011;6349;50.904;6.136;2023-07-08T07:13:50;8.15;;;6.68;;
12567;SDS011;6349;50.904;6.136;2023-07-08T07:15:51;8.90;;;6.72;;
12567;SDS011;6349;50.904;6.136;2023-07-08T07:17:54;10.15;;;7.22;;
12567;SDS011;6349;50.904;6.136;2023-07-08T07:19:55;7.95;;;6.30;;
12567;SDS011;6349;50.904;6.136;2023-07-08T07:21:56;9.88;;;6.20;;
12567;SDS011;6349;50.904;6.136;2023-07-08T07:23:58;12.48;;;6.95;;
12567;SDS011;6349;50.904;6.136;2023-07-08T07:26:00;9.15;;;6.78;;
12567;SDS011;6349;50.904;6.136;2023-07-08T07:28:02;7.63;;;6.30;;
12567;SDS011;6349;50.904;6.136;2023-07-08T07:30:05;7.35;;;6.50;;
12567;SDS011;6349;50.904;6.136;2023-07-08T07:32:09;7.20;;;6.28;;
12567;SDS011;6349;50.904;6.136;2023-07-08T07:34:10;7.75;;;6.57;;
12567;SDS011;6349;50.904;6.136;2023-07-08T07:36:16;9.55;;;6.70;;
12567;SDS011;6349;50.904;6.136;2023-07-08T07:38:18;6.60;;;5.93;;
12567;SDS011;6349;50.904;6.136;2023-07-08T07:40:20;8.27;;;6.60;;
12567;SDS011;6349;50.904;6.136;2023-07-08T07:42:22;9.13;;;6.22;;
12567;SDS011;6349;50.904;6.136;2023-07-08T07:44:24;7.93;;;6.88;;
12567;SDS011;6349;50.904;6.136;2023-07-08T07:46:25;10.93;;;6.72;;
12567;SDS011;6349;50.904;6.136;2023-07-08T07:48:27;8.57;;;6.55;;
12567;SDS011;6349;50.904;6.136;2023-07-08T07:50:30;8.25;;;6.47;;
12567;SDS011;6349;50.904;6.136;2023-07-08T07:52:32;7.75;;;6.00;;
12567;SDS011;6349;50.904;6.136;2023-07-08T07:54:33;6.13;;;5.50;;
12567;SDS011;6349;50.904;6.136;2023-07-08T07:56:35;7.50;;;5.72;;
12567;SDS011;6349;50.904;6.136;2023-07-08T07:58:37;7.40;;;6.15;;
12567;SDS011;6349;50.904;6.136;2023-07-08T08:00:39;6.05;;;5.45;;
12567;SDS011;6349;50.904;6.136;2023-07-08T08:02:44;7.45;;;6.35;;
12567;SDS011;6349;50.904;6.136;2023-07-08T08:04:46;7.30;;;6.30;;
12567;SDS011;6349;50.904;6.136;2023-07-08T08:06:48;7.63;;;6.72;;
12567;SDS011;6349;50.904;6.136;2023-07-08T08:08:50;7.88;;;6.40;;
12567;SDS011;6349;50.904;6.136;2023-07-08T08:10:52;7.88;;;6.47;;
12567;SDS011;6349;50.904;6.136;2023-07-08T08:12:54;8.35;;;6.93;;
12567;SDS011;6349;50.904;6.136;2023-07-08T08:14:56;9.07;;;6.82;;
12567;SDS011;6349;50.904;6.136;2023-07-08T08:16:58;10.20;;;6.57;;
12567;SDS011;6349;50.904;6.136;2023-07-08T08:18:59;8.35;;;6.70;;
12567;SDS011;6349;50.904;6.136;2023-07-08T08:21:01;7.25;;;6.43;;
12567;SDS011;6349;50.904;6.136;2023-07-08T08:23:03;7.85;;;6.32;;
12567;SDS011;6349;50.904;6.136;2023-07-08T08:25:06;7.07;;;6.30;;
12567;SDS011;6349;50.904;6.136;2023-07-08T08:27:09;10.00;;;6.90;;
12567;SDS011;6349;50.904;6.136;2023-07-08T08:29:11;8.40;;;6.45;;
12567;SDS011;6349;50.904;6.136;2023-07-08T08:31:13;9.93;;;7.13;;
12567;SDS011;6349;50.904;6.136;2023-07-08T08:33:15;13.45;;;5.97;;
12567;SDS011;6349;50.904;6.136;2023-07-08T08:35:17;7.50;;;6.45;;
12567;SDS011;6349;50.904;6.136;2023-07-08T08:37:19;9.85;;;6.75;;
12567;SDS011;6349;50.904;6.136;2023-07-08T08:39:21;10.35;;;6.80;;
12567;SDS011;6349;50.904;6.136;2023-07-08T08:41:29;9.05;;;6.45;;
12567;SDS011;6349;50.904;6.136;2023-07-08T08:43:34;8.52;;;6.68;;
12567;SDS011;6349;50.904;6.136;2023-07-08T08:48:10;9.80;;;6.40;;
12567;SDS011;6349;50.904;6.136;2023-07-08T08:52:48;8.27;;;6.22;;
12567;SDS011;6349;50.904;6.136;2023-07-08T08:54:50;7.97;;;6.28;;
12567;SDS011;6349;50.904;6.136;2023-07-08T08:57:02;10.60;;;6.90;;
12567;SDS011;6349;50.904;6.136;2023-07-08T09:01:53;8.32;;;6.28;;
12567;SDS011;6349;50.904;6.136;2023-07-08T09:03:57;8.38;;;6.22;;
12567;SDS011;6349;50.904;6.136;2023-07-08T09:06:11;9.57;;;6.63;;
12567;SDS011;6349;50.904;6.136;2023-07-08T09:08:28;8.30;;;6.28;;
12567;SDS011;6349;50.904;6.136;2023-07-08T09:10:52;6.75;;;6.10;;
12567;SDS011;6349;50.904;6.136;2023-07-08T09:13:11;8.57;;;6.38;;
12567;SDS011;6349;50.904;6.136;2023-07-08T09:15:37;8.98;;;6.22;;
12567;SDS011;6349;50.904;6.136;2023-07-08T09:17:39;8.50;;;6.13;;
12567;SDS011;6349;50.904;6.136;2023-07-08T09:19:47;6.93;;;6.22;;
12567;SDS011;6349;50.904;6.136;2023-07-08T09:22:15;9.40;;;6.10;;
12567;SDS011;6349;50.904;6.136;2023-07-08T09:24:24;7.57;;;6.25;;
12567;SDS011;6349;50.904;6.136;2023-07-08T09:26:46;7.80;;;6.72;;
12567;SDS011;6349;50.904;6.136;2023-07-08T09:28:49;7.05;;;6.30;;
12567;SDS011;6349;50.904;6.136;2023-07-08T09:30:52;8.57;;;6.32;;
12567;SDS011;6349;50.904;6.136;2023-07-08T09:32:55;8.23;;;6.97;;
12567;SDS011;6349;50.904;6.136;2023-07-08T09:35:07;9.63;;;6.95;;
12567;SDS011;6349;50.904;6.136;2023-07-08T09:39:30;6.70;;;6.00;;
12567;SDS011;6349;50.904;6.136;2023-07-08T09:41:37;7.85;;;6.70;;
12567;SDS011;6349;50.904;6.136;2023-07-08T09:43:39;7.57;;;6.18;;
12567;SDS011;6349;50.904;6.136;2023-07-08T09:45:43;8.75;;;6.70;;
12567;SDS011;6349;50.904;6.136;2023-07-08T09:47:47;7.70;;;6.43;;
12567;SDS011;6349;50.904;6.136;2023-07-08T09:49:53;6.70;;;6.07;;
12567;SDS011;6349;50.904;6.136;2023-07-08T09:51:54;7.32;;;6.15;;
12567;SDS011;6349;50.904;6.136;2023-07-08T09:53:56;6.72;;;6.00;;
12567;SDS011;6349;50.904;6.136;2023-07-08T09:55:59;7.78;;;6.47;;
12567;SDS011;6349;50.904;6.136;2023-07-08T09:58:03;7.32;;;5.82;;
12567;SDS011;6349;50.904;6.136;2023-07-08T10:00:13;8.82;;;6.03;;
12567;SDS011;6349;50.904;6.136;2023-07-08T10:02:27;12.18;;;6.20;;
12567;SDS011;6349;50.904;6.136;2023-07-08T10:04:31;12.02;;;6.05;;
12567;SDS011;6349;50.904;6.136;2023-07-08T10:06:34;6.90;;;6.07;;
12567;SDS011;6349;50.904;6.136;2023-07-08T10:08:43;6.68;;;6.00;;
12567;SDS011;6349;50.904;6.136;2023-07-08T10:11:32;9.25;;;6.25;;
12567;SDS011;6349;50.904;6.136;2023-07-08T10:13:42;6.50;;;5.90;;
12567;SDS011;6349;50.904;6.136;2023-07-08T10:15:47;6.28;;;5.68;;
12567;SDS011;6349;50.904;6.136;2023-07-08T10:17:54;6.88;;;5.25;;
12567;SDS011;6349;50.904;6.136;2023-07-08T10:19:57;6.38;;;5.72;;
12567;SDS011;6349;50.904;6.136;2023-07-08T10:22:11;7.38;;;5.82;;
12567;SDS011;6349;50.904;6.136;2023-07-08T10:27:06;6.05;;;5.45;;
12567;SDS011;6349;50.904;6.136;2023-07-08T10:29:48;6.88;;;5.82;;
12567;SDS011;6349;50.904;6.136;2023-07-08T10:54:23;7.05;;;5.20;;
12567;SDS011;6349;50.904;6.136;2023-07-08T10:57:00;6.50;;;5.18;;
12567;SDS011;6349;50.904;6.136;2023-07-08T11:09:51;5.25;;;4.75;;
12567;SDS011;6349;50.904;6.136;2023-07-08T11:12:01;7.78;;;5.75;;
12567;SDS011;6349;50.904;6.136;2023-07-08T11:14:45;6.57;;;5.10;;
12567;SDS011;6349;50.904;6.136;2023-07-08T11:19:26;7.13;;;5.50;;
12567;SDS011;6349;50.904;6.136;2023-07-08T11:21:46;5.68;;;5.15;;
12567;SDS011;6349;50.904;6.136;2023-07-08T11:24:03;6.35;;;5.63;;
12567;SDS011;6349;50.904;6.136;2023-07-08T11:28:40;6.10;;;5.43;;
12567;SDS011;6349;50.904;6.136;2023-07-08T11:30:42;6.85;;;5.35;;
12567;SDS011;6349;50.904;6.136;2023-07-08T11:32:48;5.32;;;4.82;;
12567;SDS011;6349;50.904;6.136;2023-07-08T11:34:59;6.55;;;5.13;;
12567;SDS011;6349;50.904;6.136;2023-07-08T11:37:04;6.28;;;5.43;;
12567;SDS011;6349;50.904;6.136;2023-07-08T11:39:25;5.78;;;5.15;;
12567;SDS011;6349;50.904;6.136;2023-07-08T11:41:48;6.15;;;5.38;;
12567;SDS011;6349;50.904;6.136;2023-07-08T11:43:58;6.13;;;5.03;;
12567;SDS011;6349;50.904;6.136;2023-07-08T11:46:05;7.38;;;5.45;;
12567;SDS011;6349;50.904;6.136;2023-07-08T11:48:13;6.63;;;5.03;;
12567;SDS011;6349;50.904;6.136;2023-07-08T11:50:31;6.68;;;5.57;;
12567;SDS011;6349;50.904;6.136;2023-07-08T11:52:38;6.28;;;4.88;;
12567;SDS011;6349;50.904;6.136;2023-07-08T11:55:14;5.35;;;4.82;;
12567;SDS011;6349;50.904;6.136;2023-07-08T11:57:30;5.30;;;4.80;;
12567;SDS011;6349;50.904;6.136;2023-07-08T11:59:39;7.15;;;5.15;;
12567;SDS011;6349;50.904;6.136;2023-07-08T12:02:17;5.97;;;4.68;;
12567;SDS011;6349;50.904;6.136;2023-07-08T12:04:34;7.50;;;5.22;;
12567;SDS011;6349;50.904;6.136;2023-07-08T12:06:54;5.97;;;5.03;;
12567;SDS011;6349;50.904;6.136;2023-07-08T12:09:22;5.20;;;4.53;;
12567;SDS011;6349;50.904;6.136;2023-07-08T12:11:34;6.20;;;5.10;;
12567;SDS011;6349;50.904;6.136;2023-07-08T12:13:36;6.78;;;5.05;;
12567;SDS011;6349;50.904;6.136;2023-07-08T12:15:40;7.97;;;4.70;;
12567;SDS011;6349;50.904;6.136;2023-07-08T12:17:42;5.15;;;4.72;;
12567;SDS011;6349;50.904;6.136;2023-07-08T12:19:45;5.90;;;5.05;;
12567;SDS011;6349;50.904;6.136;2023-07-08T12:21:49;5.97;;;5.38;;
12567;SDS011;6349;50.904;6.136;2023-07-08T12:23:51;6.45;;;5.30;;
12567;SDS011;6349;50.904;6.136;2023-07-08T12:25:53;8.00;;;5.32;;
12567;SDS011;6349;50.904;6.136;2023-07-08T12:27:56;6.18;;;4.80;;
12567;SDS011;6349;50.904;6.136;2023-07-08T12:29:58;7.13;;;5.07;;
12567;SDS011;6349;50.904;6.136;2023-07-08T12:32:01;7.03;;;5.22;;
12567;SDS011;6349;50.904;6.136;2023-07-08T12:34:04;6.93;;;4.90;;
12567;SDS011;6349;50.904;6.136;2023-07-08T12:36:19;5.88;;;4.95;;
12567;SDS011;6349;50.904;6.136;2023-07-08T12:38:31;6.30;;;4.95;;
12567;SDS011;6349;50.904;6.136;2023-07-08T12:40:37;6.75;;;4.93;;
12567;SDS011;6349;50.904;6.136;2023-07-08T12:42:39;8.05;;;4.88;;
12567;SDS011;6349;50.904;6.136;2023-07-08T12:44:41;7.05;;;4.93;;
12567;SDS011;6349;50.904;6.136;2023-07-08T12:46:45;5.90;;;5.28;;
12567;SDS011;6349;50.904;6.136;2023-07-08T12:48:48;6.68;;;5.15;;
12567;SDS011;6349;50.904;6.136;2023-07-08T12:50:50;7.72;;;5.05;;
12567;SDS011;6349;50.904;6.136;2023-07-08T12:52:52;10.32;;;5.70;;
12567;SDS011;6349;50.904;6.136;2023-07-08T12:54:54;8.00;;;5.30;;
12567;SDS011;6349;50.904;6.136;2023-07-08T12:56:56;7.43;;;4.97;;
12567;SDS011;6349;50.904;6.136;2023-07-08T12:58:59;6.13;;;5.35;;
12567;SDS011;6349;50.904;6.136;2023-07-08T13:01:02;5.55;;;4.90;;
12567;SDS011;6349;50.904;6.136;2023-07-08T13:03:18;5.85;;;4.78;;
12567;SDS011;6349;50.904;6.136;2023-07-08T13:05:23;5.60;;;5.10;;
12567;SDS011;6349;50.904;6.136;2023-07-08T13:07:38;6.25;;;4.97;;
12567;SDS011;6349;50.904;6.136;2023-07-08T13:09:44;6.20;;;5.00;;
12567;SDS011;6349;50.904;6.136;2023-07-08T13:11:47;5.28;;;4.78;;
12567;SDS011;6349;50.904;6.136;2023-07-08T13:13:53;6.50;;;4.80;;
12567;SDS011;6349;50.904;6.136;2023-07-08T13:15:57;5.18;;;4.57;;
12567;SDS011;6349;50.904;6.136;2023-07-08T13:17:58;5.55;;;4.40;;
12567;SDS011;6349;50.904;6.136;2023-07-08T13:20:01;5.43;;;4.85;;
12567;SDS011;6349;50.904;6.136;2023-07-08T13:22:03;6.18;;;4.78;;
12567;SDS011;6349;50.904;6.136;2023-07-08T13:24:09;6.18;;;4.80;;
12567;SDS011;6349;50.904;6.136;2023-07-08T13:26:18;6.05;;;4.80;;
12567;SDS011;6349;50.904;6.136;2023-07-08T13:28:35;5.07;;;4.57;;
12567;SDS011;6349;50.904;6.136;2023-07-08T13:30:48;6.97;;;4.72;;
12567;SDS011;6349;50.904;6.136;2023-07-08T13:32:58;5.45;;;4.78;;
12567;SDS011;6349;50.904;6.136;2023-07-08T13:35:00;6.15;;;5.30;;
12567;SDS011;6349;50.904;6.136;2023-07-08T13:37:02;5.85;;;4.72;;
12567;SDS011;6349;50.904;6.136;2023-07-08T13:39:08;5.90;;;5.30;;